Time;durP1;ratioP1;P1;durP2;ratioP2;P2;SDS_P1;SDS_P2;PMS_P1;PMS_P2;Temp;Humidity;BMP_temperature;BMP_pressure;BME280_temperature;BME280_humidity;BME280_pressure;Samples;Min_cycle;Max_cycle;Signal;HPM_P1;HPM_P2
2023/03/07 00:01:49;;;;;;;3.22;2.95;;;4.80;99.90;;;;;;4987570;28;20031;-76
2023/03/07 00:04:15;;;;;;;4.68;4.10;;;4.80;99.90;;;;;;4986166;28;20066;-76
2023/03/07 00:06:41;;;;;;;4.80;3.00;;;4.80;99.90;;;;;;4987051;28;20054;-76
2023/03/07 00:09:08;;;;;;;3.58;3.28;;;4.80;99.90;;;;;;4987260;28;20039;-76
2023/03/07 00:11:34;;;;;;;4.38;4.05;;;4.80;99.90;;;;;;4987228;28;20031;-76
2023/03/07 00:13:59;;;;;;;4.82;4.43;;;4.80;99.90;;;;;;4986186;28;20054;-76
2023/03/07 00:16:25;;;;;;;5.80;5.32;;;4.90;99.90;;;;;;4987242;28;20124;-76
2023/03/07 00:18:52;;;;;;;4.05;3.65;;;4.40;99.90;;;;;;4985639;28;20039;-76
2023/03/07 00:21:20;;;;;;;4.20;3.80;;;4.80;99.90;;;;;;4985907;28;20046;-75
2023/03/07 00:23:47;;;;;;;4.75;3.80;;;4.80;99.90;;;;;;4987305;28;20380;-76
2023/03/07 00:26:20;;;;;;;5.22;3.50;;;4.80;99.90;;;;;;4985797;28;20082;-76
2023/03/07 00:28:49;;;;;;;4.25;3.78;;;4.80;99.90;;;;;;4987206;28;20450;-76
2023/03/07 00:31:15;;;;;;;2.65;2.45;;;4.80;99.90;;;;;;4987144;28;20106;-76
2023/03/07 00:33:41;;;;;;;4.22;3.72;;;4.80;99.90;;;;;;4985459;28;20046;-76
2023/03/07 00:36:19;;;;;;;4.63;4.32;;;4.80;99.90;;;;;;4987068;28;20035;-76
2023/03/07 00:38:46;;;;;;;4.63;4.32;;;4.90;99.90;;;;;;4969573;28;20034;-76
2023/03/07 00:41:14;;;;;;;4.03;3.63;;;4.80;99.90;;;;;;4969543;28;20037;-76
2023/03/07 00:43:41;;;;;;;5.43;4.25;;;4.80;99.90;;;;;;4985385;28;20029;-75
2023/03/07 00:46:07;;;;;;;6.13;3.58;;;4.80;99.90;;;;;;4985594;28;20031;-76
2023/03/07 00:48:36;;;;;;;3.92;3.58;;;4.80;99.90;;;;;;4985678;28;20035;-76
2023/03/07 00:51:03;;;;;;;4.30;3.90;;;4.80;99.90;;;;;;4985607;28;20519;-77
2023/03/07 00:53:29;;;;;;;4.60;3.95;;;4.80;99.90;;;;;;4985565;28;20034;-77
2023/03/07 00:55:58;;;;;;;4.40;3.97;;;4.80;99.90;;;;;;4986969;28;20027;-75
2023/03/07 00:58:25;;;;;;;4.05;3.30;;;4.70;99.90;;;;;;4985301;28;20029;-76
2023/03/07 01:00:51;;;;;;;4.13;3.83;;;4.80;99.90;;;;;;4985238;28;20054;-77
2023/03/07 01:03:18;;;;;;;6.05;3.90;;;4.80;99.90;;;;;;4985490;28;20031;-76
2023/03/07 01:05:45;;;;;;;3.63;2.88;;;4.80;99.90;;;;;;4988717;28;20038;-76
2023/03/07 01:08:11;;;;;;;3.22;3.03;;;4.70;99.90;;;;;;4989227;28;20035;-77
2023/03/07 01:10:38;;;;;;;3.80;3.53;;;4.70;99.90;;;;;;4989377;28;20118;-76
2023/03/07 01:13:04;;;;;;;4.38;4.07;;;4.70;99.90;;;;;;4990226;28;20030;-76
2023/03/07 01:15:30;;;;;;;4.43;4.03;;;4.70;99.90;;;;;;4990343;28;20023;-77
2023/03/07 01:17:57;;;;;;;4.32;3.95;;;4.70;99.90;;;;;;4990472;28;20035;-77
2023/03/07 01:20:23;;;;;;;4.88;4.45;;;4.60;99.90;;;;;;4989082;28;20086;-77
2023/03/07 01:22:49;;;;;;;4.20;3.88;;;4.60;99.90;;;;;;4988827;28;20038;-76
2023/03/07 01:25:14;;;;;;;4.18;3.80;;;4.50;99.90;;;;;;4989061;28;20089;-76
2023/03/07 01:27:40;;;;;;;5.05;4.68;;;4.50;99.90;;;;;;4988823;28;20166;-76
2023/03/07 01:30:08;;;;;;;4.07;3.70;;;4.50;99.90;;;;;;4972463;28;20053;-76
2023/03/07 01:32:36;;;;;;;5.05;4.47;;;4.40;99.90;;;;;;4989076;28;20073;-76
2023/03/07 01:35:02;;;;;;;3.75;3.45;;;4.40;99.90;;;;;;4972659;28;20019;-76
2023/03/07 01:37:28;;;;;;;5.00;4.50;;;4.40;99.90;;;;;;4988547;28;20023;-76
2023/03/07 01:39:55;;;;;;;3.83;3.20;;;4.40;99.90;;;;;;4988472;28;20041;-76
2023/03/07 01:42:21;;;;;;;4.70;4.30;;;4.40;99.90;;;;;;4956699;28;20034;-75
2023/03/07 01:44:58;;;;;;;4.13;3.28;;;4.40;99.90;;;;;;4988557;28;20035;-76
2023/03/07 01:47:28;;;;;;;4.95;4.55;;;4.40;99.90;;;;;;4988691;28;20037;-76
2023/03/07 01:49:54;;;;;;;4.00;3.70;;;4.40;99.90;;;;;;4972367;28;20030;-76
2023/03/07 01:52:32;;;;;;;4.60;4.20;;;4.30;99.90;;;;;;4988502;28;20113;-76
2023/03/07 01:55:04;;;;;;;;;;;4.30;99.90;;;;;;4988742;28;20029;-75
2023/03/07 01:57:37;;;;;;;4.18;3.88;;;4.20;99.90;;;;;;5004753;28;19917;-75
2023/03/07 02:00:09;;;;;;;3.83;3.53;;;4.20;99.90;;;;;;4988376;28;20050;-75
2023/03/07 02:02:44;;;;;;;5.38;4.03;;;4.20;99.90;;;;;;4989621;28;20039;-76
2023/03/07 02:05:24;;;;;;;4.07;3.72;;;4.20;99.90;;;;;;4988156;28;20031;-76
2023/03/07 02:07:52;;;;;;;4.90;4.47;;;4.30;99.90;;;;;;4987973;28;20031;-76
2023/03/07 02:10:23;;;;;;;5.13;4.70;;;4.20;99.90;;;;;;4984689;28;20034;-76
2023/03/07 02:12:52;;;;;;;5.15;4.65;;;4.20;99.90;;;;;;4989192;28;20034;-76
2023/03/07 02:15:18;;;;;;;4.43;3.92;;;4.30;99.90;;;;;;4971875;28;20038;-76
2023/03/07 02:17:45;;;;;;;5.68;5.18;;;4.30;99.90;;;;;;4986765;28;20027;-76
2023/03/07 02:20:42;;;;;;;5.22;4.78;;;4.30;99.90;;;;;;4988069;28;20110;-76
2023/03/07 02:23:30;;;;;;;5.03;4.57;;;4.20;99.90;;;;;;4970448;28;20050;-76
2023/03/07 02:26:06;;;;;;;4.40;4.00;;;4.20;99.90;;;;;;4971760;28;20035;-76
2023/03/07 02:28:33;;;;;;;6.53;6.03;;;4.20;99.90;;;;;;4987848;28;20037;-76
2023/03/07 02:31:03;;;;;;;6.95;6.30;;;4.30;99.90;;;;;;4971807;28;20030;-76
2023/03/07 02:33:32;;;;;;;5.88;5.38;;;4.30;99.90;;;;;;4987713;28;20034;-76
2023/03/07 02:36:04;;;;;;;;;;;4.30;99.90;;;;;;4988221;28;20034;-75
2023/03/07 02:38:36;;;;;;;6.95;6.35;;;4.30;99.90;;;;;;4987682;28;20363;-75
2023/03/07 02:41:03;;;;;;;6.13;5.63;;;4.30;99.90;;;;;;4987226;28;20488;-76
2023/03/07 02:43:31;;;;;;;7.32;6.63;;;4.30;99.90;;;;;;4987439;28;20022;-76
2023/03/07 02:45:57;;;;;;;9.07;7.72;;;4.40;99.90;;;;;;4971520;28;20038;-76
2023/03/07 02:48:23;;;;;;;11.40;10.25;;;4.40;99.90;;;;;;4987329;28;20042;-76
2023/03/07 02:50:49;;;;;;;11.93;9.68;;;4.50;99.90;;;;;;5003264;28;20027;-76
2023/03/07 02:53:15;;;;;;;9.75;8.88;;;4.50;99.90;;;;;;4987528;28;20033;-76
2023/03/07 02:55:41;;;;;;;12.00;10.77;;;4.50;99.90;;;;;;4987205;28;20539;-76
2023/03/07 02:58:07;;;;;;;9.57;8.52;;;4.60;99.90;;;;;;4987108;28;20031;-76
2023/03/07 03:00:33;;;;;;;8.32;7.55;;;4.60;99.90;;;;;;4987093;28;20057;-76
2023/03/07 03:02:59;;;;;;;12.27;8.90;;;4.60;99.90;;;;;;4987264;28;20030;-76
2023/03/07 03:05:25;;;;;;;10.43;9.52;;;4.60;99.90;;;;;;4986805;28;20027;-76
2023/03/07 03:07:51;;;;;;;12.00;9.45;;;4.60;99.90;;;;;;4987081;28;20069;-76
2023/03/07 03:10:17;;;;;;;12.50;9.70;;;4.60;99.90;;;;;;4987044;28;20484;-76
2023/03/07 03:12:43;;;;;;;12.95;9.80;;;4.60;99.90;;;;;;4987088;28;20018;-76
2023/03/07 03:15:10;;;;;;;15.73;11.27;;;4.60;99.90;;;;;;4987235;28;20038;-76
2023/03/07 03:17:37;;;;;;;11.63;10.38;;;4.60;99.90;;;;;;4989669;28;20027;-76
2023/03/07 03:20:11;;;;;;;10.50;9.35;;;4.70;99.90;;;;;;4968304;28;20031;-76
2023/03/07 03:22:40;;;;;;;11.82;10.00;;;4.70;99.90;;;;;;4968885;28;20115;-77
2023/03/07 03:25:09;;;;;;;12.25;11.05;;;4.70;99.90;;;;;;4983638;28;20031;-76
2023/03/07 03:27:37;;;;;;;12.52;11.43;;;4.60;99.90;;;;;;4982783;28;20114;-77
2023/03/07 03:30:07;;;;;;;10.18;9.20;;;4.70;99.90;;;;;;4983671;28;20023;-77
2023/03/07 03:32:36;;;;;;;12.88;10.65;;;4.60;99.90;;;;;;4983519;28;20027;-77
2023/03/07 03:35:02;;;;;;;10.73;9.75;;;4.60;99.90;;;;;;4967058;28;20023;-76
2023/03/07 03:37:30;;;;;;;11.82;10.75;;;4.70;99.90;;;;;;4983340;28;20032;-77
2023/03/07 03:39:56;;;;;;;12.57;9.13;;;4.60;99.90;;;;;;4968482;28;20047;-76
2023/03/07 03:42:22;;;;;;;10.07;8.93;;;4.60;99.90;;;;;;4968391;28;20425;-76
2023/03/07 03:44:48;;;;;;;12.63;8.52;;;4.60;99.90;;;;;;4983043;28;20082;-76
2023/03/07 03:47:15;;;;;;;9.43;8.57;;;4.60;99.90;;;;;;4983286;28;20031;-76
2023/03/07 03:49:41;;;;;;;10.57;9.45;;;4.60;99.90;;;;;;4983011;28;20031;-76
2023/03/07 03:52:08;;;;;;;10.95;9.85;;;4.60;99.90;;;;;;4983153;28;20046;-76
2023/03/07 03:54:34;;;;;;;9.45;8.50;;;4.60;99.90;;;;;;4983080;28;20451;-76
2023/03/07 03:57:01;;;;;;;11.82;10.57;;;4.60;99.90;;;;;;4982905;28;20031;-76
2023/03/07 03:59:29;;;;;;;12.57;11.32;;;4.60;99.90;;;;;;4982785;28;20130;-76
2023/03/07 04:01:55;;;;;;;10.95;10.02;;;4.60;99.90;;;;;;4982959;28;20035;-76
2023/03/07 04:04:21;;;;;;;12.95;10.55;;;4.60;99.90;;;;;;4982811;28;20493;-76
2023/03/07 04:06:47;;;;;;;13.65;11.40;;;4.60;99.90;;;;;;4966839;28;20070;-76
2023/03/07 04:09:13;;;;;;;12.55;11.27;;;4.60;99.90;;;;;;4982661;28;20027;-76
2023/03/07 04:11:42;;;;;;;14.23;12.82;;;4.60;99.90;;;;;;4986056;28;20042;-76
2023/03/07 04:14:08;;;;;;;17.42;13.05;;;4.60;99.90;;;;;;4985495;28;20035;-76
2023/03/07 04:16:33;;;;;;;14.88;12.57;;;4.60;99.90;;;;;;4985857;28;20039;-76
2023/03/07 04:18:59;;;;;;;11.82;10.75;;;4.60;99.90;;;;;;4969738;28;20062;-76
2023/03/07 04:21:25;;;;;;;16.08;14.43;;;4.60;99.90;;;;;;4986053;28;20083;-76
2023/03/07 04:23:56;;;;;;;14.75;13.07;;;4.60;99.90;;;;;;4985832;28;20034;-76
2023/03/07 04:26:24;;;;;;;15.68;14.18;;;4.60;99.90;;;;;;4985707;28;20038;-76
2023/03/07 04:28:50;;;;;;;16.70;14.70;;;4.60;99.90;;;;;;4969530;28;20027;-76
2023/03/07 04:31:27;;;;;;;16.52;14.35;;;4.60;99.90;;;;;;4986038;28;20039;-76
2023/03/07 04:33:55;;;;;;;16.33;14.63;;;4.60;99.90;;;;;;4987084;28;20035;-76
2023/03/07 04:36:22;;;;;;;14.52;13.13;;;4.60;99.90;;;;;;4969620;28;20090;-75
2023/03/07 04:38:49;;;;;;;20.33;15.40;;;4.60;99.90;;;;;;4969944;28;20081;-76
2023/03/07 04:41:22;;;;;;;17.48;15.50;;;4.60;99.90;;;;;;4972509;28;20055;-75
2023/03/07 04:43:52;;;;;;;13.50;12.18;;;4.60;99.90;;;;;;4989749;28;20018;-76
2023/03/07 04:46:18;;;;;;;15.38;13.77;;;4.60;99.90;;;;;;4989646;28;20055;-76
2023/03/07 04:48:45;;;;;;;17.65;14.63;;;4.60;99.90;;;;;;4957756;28;20027;-76
2023/03/07 04:51:12;;;;;;;17.75;16.05;;;4.60;99.90;;;;;;4973340;28;20027;-76
2023/03/07 04:53:38;;;;;;;17.38;15.43;;;4.60;99.90;;;;;;4989441;28;20026;-76
2023/03/07 04:56:06;;;;;;;17.23;15.48;;;4.60;99.90;;;;;;4989581;28;20053;-76
2023/03/07 04:58:33;;;;;;;15.30;13.75;;;4.60;99.90;;;;;;4989296;28;20030;-76
2023/03/07 05:01:00;;;;;;;16.27;14.57;;;4.70;99.90;;;;;;4989221;28;20051;-76
2023/03/07 05:03:27;;;;;;;15.93;14.15;;;4.60;99.90;;;;;;4989670;28;20457;-76
2023/03/07 05:05:53;;;;;;;16.30;14.63;;;4.60;99.90;;;;;;4989360;28;20050;-75
2023/03/07 05:08:20;;;;;;;17.10;15.55;;;4.70;99.90;;;;;;4989058;28;20066;-76
2023/03/07 05:10:46;;;;;;;14.88;13.07;;;4.60;99.90;;;;;;4973978;28;20016;-76
2023/03/07 05:13:12;;;;;;;16.58;15.00;;;4.70;99.90;;;;;;4969858;29;20476;-76
2023/03/07 05:15:38;;;;;;;18.17;15.10;;;4.60;99.90;;;;;;4985849;28;20062;-76
2023/03/07 05:18:05;;;;;;;14.80;13.43;;;4.60;99.90;;;;;;4985892;28;20034;-76
2023/03/07 05:20:32;;;;;;;28.40;16.67;;;4.60;99.90;;;;;;4969521;28;20086;-76
2023/03/07 05:22:58;;;;;;;27.45;16.80;;;4.60;99.90;;;;;;4969746;28;20038;-75
2023/03/07 05:25:24;;;;;;;16.05;14.40;;;4.70;99.90;;;;;;4984205;28;20031;-76
2023/03/07 05:27:50;;;;;;;15.32;13.65;;;4.70;99.90;;;;;;4988843;28;20041;-76
2023/03/07 05:30:16;;;;;;;17.42;15.85;;;4.60;99.90;;;;;;4988851;28;20062;-75
2023/03/07 05:32:42;;;;;;;15.77;14.25;;;4.70;99.90;;;;;;4988933;28;20027;-75
2023/03/07 05:35:11;;;;;;;16.70;13.45;;;4.60;99.90;;;;;;4988222;28;20026;-76
2023/03/07 05:37:38;;;;;;;15.93;12.32;;;4.60;99.90;;;;;;4988462;28;20035;-76
2023/03/07 05:40:10;;;;;;;14.75;12.02;;;4.60;99.90;;;;;;4988850;28;20117;-76
2023/03/07 05:42:40;;;;;;;16.13;13.98;;;4.60;99.90;;;;;;4988486;28;20029;-76
2023/03/07 05:45:06;;;;;;;15.45;13.85;;;4.60;99.90;;;;;;4988488;28;20030;-76
2023/03/07 05:47:32;;;;;;;17.08;15.32;;;4.60;99.90;;;;;;5004866;28;20027;-75
2023/03/07 05:49:58;;;;;;;14.38;13.13;;;4.60;99.90;;;;;;4988694;28;20042;-76
2023/03/07 05:52:24;;;;;;;15.73;14.13;;;4.60;99.90;;;;;;4987890;28;20041;-76
2023/03/07 05:54:50;;;;;;;14.57;13.07;;;4.60;99.90;;;;;;4988182;28;20029;-76
2023/03/07 05:57:16;;;;;;;14.95;13.40;;;4.60;99.90;;;;;;4972133;28;20034;-76
2023/03/07 05:59:42;;;;;;;14.35;12.95;;;4.60;99.90;;;;;;4987995;28;20051;-76
2023/03/07 06:02:08;;;;;;;16.40;14.32;;;4.60;99.90;;;;;;4988464;28;20041;-76
2023/03/07 06:04:33;;;;;;;20.88;14.50;;;4.60;99.90;;;;;;5004657;28;20046;-76
2023/03/07 06:06:59;;;;;;;14.00;12.57;;;4.50;99.90;;;;;;4989428;28;20030;-76
2023/03/07 06:09:26;;;;;;;18.70;14.68;;;4.60;99.90;;;;;;4988227;28;20019;-76
2023/03/07 06:11:54;;;;;;;16.75;15.15;;;4.60;99.90;;;;;;4984585;28;20091;-75
2023/03/07 06:14:20;;;;;;;15.95;13.32;;;4.60;99.90;;;;;;4968734;28;20042;-76
2023/03/07 06:16:46;;;;;;;14.35;12.95;;;4.60;99.90;;;;;;4968766;29;20171;-76
2023/03/07 06:19:12;;;;;;;11.65;10.48;;;4.60;99.90;;;;;;4984719;28;20031;-76
2023/03/07 06:21:38;;;;;;;17.92;14.05;;;4.60;99.90;;;;;;4998753;28;20038;-75
2023/03/07 06:24:06;;;;;;;16.63;14.90;;;4.60;99.90;;;;;;4958207;28;20035;-75
2023/03/07 06:26:32;;;;;;;16.48;14.82;;;4.60;99.90;;;;;;5020093;28;20023;-76
2023/03/07 06:28:59;;;;;;;21.95;12.50;;;4.60;99.90;;;;;;4986731;28;20027;-76
2023/03/07 06:31:26;;;;;;;14.35;12.82;;;4.60;99.90;;;;;;4970382;28;20035;-75
2023/03/07 06:33:53;;;;;;;15.55;14.05;;;4.60;99.90;;;;;;4987254;28;20030;-75
2023/03/07 06:36:20;;;;;;;16.42;13.13;;;4.60;99.90;;;;;;4987019;28;20023;-75
2023/03/07 06:38:51;;;;;;;14.98;13.48;;;4.60;99.90;;;;;;4956520;28;20403;-76
2023/03/07 06:41:17;;;;;;;13.40;11.98;;;4.60;99.90;;;;;;4971182;28;20046;-75
2023/03/07 06:43:43;;;;;;;15.63;13.13;;;4.60;99.90;;;;;;4987393;28;20033;-75
2023/03/07 06:46:09;;;;;;;14.18;12.35;;;4.60;99.90;;;;;;4987136;28;20022;-75
2023/03/07 06:48:38;;;;;;;14.43;11.35;;;4.60;99.90;;;;;;4955801;28;20038;-75
2023/03/07 06:51:08;;;;;;;12.70;10.90;;;4.70;99.90;;;;;;4971052;28;20031;-76
2023/03/07 06:53:36;;;;;;;19.33;14.80;;;4.60;99.90;;;;;;4987096;28;20050;-75
2023/03/07 06:56:03;;;;;;;16.42;13.55;;;4.60;99.90;;;;;;4970610;28;20445;-75
2023/03/07 06:58:31;;;;;;;15.68;12.13;;;4.60;99.90;;;;;;4970569;28;20026;-75
2023/03/07 07:00:57;;;;;;;16.50;14.80;;;4.70;99.90;;;;;;4986984;28;20152;-76
2023/03/07 07:03:24;;;;;;;34.67;24.77;;;4.60;99.90;;;;;;4973873;28;20038;-75
2023/03/07 07:05:50;;;;;;;16.88;15.10;;;4.70;99.90;;;;;;4986985;28;20491;-75
2023/03/07 07:08:16;;;;;;;13.23;11.90;;;4.60;99.90;;;;;;4970543;28;20031;-76
2023/03/07 07:10:42;;;;;;;17.48;14.38;;;4.70;99.90;;;;;;4954681;28;20031;-75
2023/03/07 07:13:08;;;;;;;14.63;13.30;;;4.70;99.90;;;;;;4987861;28;20038;-76
2023/03/07 07:15:35;;;;;;;16.30;13.90;;;4.70;99.90;;;;;;4986708;28;20046;-75
2023/03/07 07:18:00;;;;;;;16.48;13.27;;;4.80;99.90;;;;;;4986616;28;20100;-75
2023/03/07 07:20:27;;;;;;;14.00;10.60;;;4.70;99.90;;;;;;4986611;28;20019;-75
2023/03/07 07:22:53;;;;;;;12.15;11.02;;;4.70;99.90;;;;;;4983526;28;20078;-75
2023/03/07 07:25:19;;;;;;;13.60;12.25;;;4.70;99.90;;;;;;4987589;28;20039;-76
2023/03/07 07:27:46;;;;;;;13.93;10.93;;;4.70;99.90;;;;;;4954770;28;20030;-76
2023/03/07 07:30:12;;;;;;;13.40;10.20;;;4.80;99.90;;;;;;4986452;28;20030;-75
2023/03/07 07:32:38;;;;;;;11.70;9.77;;;4.70;99.90;;;;;;4985321;28;20038;-75
2023/03/07 07:35:05;;;;;;;15.70;14.18;;;4.80;99.90;;;;;;5002501;28;20022;-75
2023/03/07 07:37:31;;;;;;;11.95;10.10;;;4.80;99.90;;;;;;4970534;28;20094;-75
2023/03/07 07:39:57;;;;;;;16.38;11.23;;;4.80;99.90;;;;;;4984884;28;20053;-75
2023/03/07 07:42:23;;;;;;;11.65;10.70;;;4.80;99.90;;;;;;4985532;28;20067;-74
2023/03/07 07:45:10;;;;;;;13.27;10.07;;;4.80;99.90;;;;;;4982552;28;20484;-75
2023/03/07 07:47:36;;;;;;;11.18;10.18;;;4.80;99.90;;;;;;4986136;28;20110;-75
2023/03/07 07:50:02;;;;;;;10.55;9.48;;;4.80;99.90;;;;;;4981298;28;20404;-75
2023/03/07 07:52:32;;;;;;;;;;;4.80;99.90;;;;;;4986433;28;20043;-76
2023/03/07 07:54:58;;;;;;;10.63;9.55;;;4.90;99.90;;;;;;4986310;28;19914;-76
2023/03/07 07:57:26;;;;;;;12.85;10.57;;;4.90;99.90;;;;;;4986232;28;20030;-75
2023/03/07 07:59:53;;;;;;;15.35;11.98;;;5.00;99.90;;;;;;4970103;28;20053;-76
2023/03/07 08:02:18;;;;;;;7.18;6.47;;;4.90;99.90;;;;;;4986255;28;20193;-75
2023/03/07 08:04:46;;;;;;;6.63;5.72;;;4.70;99.90;;;;;;4987074;28;20030;-75
2023/03/07 08:07:13;;;;;;;4.72;4.30;;;4.20;99.90;;;;;;4985802;28;20031;-75
2023/03/07 08:09:39;;;;;;;4.75;4.35;;;3.80;99.90;;;;;;4985944;28;20034;-75
2023/03/07 08:12:05;;;;;;;4.05;3.75;;;3.60;99.90;;;;;;4986648;28;20027;-75
2023/03/07 08:14:33;;;;;;;5.40;4.90;;;3.70;99.90;;;;;;4987166;28;20464;-75
2023/03/07 08:16:58;;;;;;;5.30;4.38;;;3.70;99.90;;;;;;4987411;28;20045;-75
2023/03/07 08:19:24;;;;;;;4.88;4.57;;;3.70;99.90;;;;;;5002063;28;20102;-75
2023/03/07 08:21:50;;;;;;;6.07;5.68;;;3.80;99.90;;;;;;4969750;28;20037;-75
2023/03/07 08:24:16;;;;;;;5.60;5.10;;;3.90;99.90;;;;;;4987475;28;20384;-75
2023/03/07 08:26:41;;;;;;;5.30;4.85;;;3.90;99.90;;;;;;4987024;28;20049;-75
2023/03/07 08:29:08;;;;;;;7.25;6.65;;;3.90;99.90;;;;;;4985795;28;20031;-75
2023/03/07 08:31:33;;;;;;;7.15;6.45;;;4.00;99.90;;;;;;4987293;28;20031;-75
2023/03/07 08:33:59;;;;;;;5.78;5.22;;;4.10;99.90;;;;;;4985818;28;20434;-75
2023/03/07 08:36:26;;;;;;;8.55;7.22;;;4.10;99.90;;;;;;4969450;28;20035;-75
2023/03/07 08:38:52;;;;;;;8.70;8.00;;;4.10;99.90;;;;;;4987019;28;20034;-75
2023/03/07 08:41:19;;;;;;;8.45;7.00;;;4.10;99.90;;;;;;4985551;28;20114;-75
2023/03/07 08:43:44;;;;;;;7.05;6.45;;;4.10;99.90;;;;;;4986881;28;20038;-74
2023/03/07 08:46:10;;;;;;;6.30;5.68;;;4.10;99.90;;;;;;4985971;28;20023;-74
2023/03/07 08:48:36;;;;;;;7.80;7.15;;;4.10;99.90;;;;;;4969622;28;20043;-74
2023/03/07 08:51:11;;;;;;;6.50;5.93;;;4.10;99.90;;;;;;4986791;28;20019;-75
2023/03/07 08:53:37;;;;;;;5.22;4.72;;;4.00;99.90;;;;;;4985687;28;20030;-74
2023/03/07 08:56:08;;;;;;;4.80;4.40;;;4.00;99.90;;;;;;4985536;28;20120;-74
2023/03/07 08:58:34;;;;;;;4.05;3.78;;;3.90;99.90;;;;;;4985036;28;20523;-74
2023/03/07 09:01:00;;;;;;;3.05;2.85;;;3.80;99.90;;;;;;4969374;28;20114;-74
2023/03/07 09:03:26;;;;;;;4.35;3.08;;;3.80;99.90;;;;;;4984850;28;20027;-75
2023/03/07 09:05:52;;;;;;;6.20;2.72;;;3.80;99.90;;;;;;4969123;28;20031;-75
2023/03/07 09:08:17;;;;;;;2.55;2.35;;;3.80;99.90;;;;;;4986613;28;20066;-75
2023/03/07 09:10:43;;;;;;;6.18;3.08;;;3.80;99.90;;;;;;4986748;28;20031;-75
2023/03/07 09:13:09;;;;;;;2.40;1.85;;;3.80;99.90;;;;;;4986581;28;20030;-75
2023/03/07 09:15:38;;;;;;;2.80;2.60;;;3.70;99.90;;;;;;4985596;28;20514;-75
2023/03/07 09:18:04;;;;;;;3.17;2.90;;;3.70;99.90;;;;;;4984772;28;20042;-75
2023/03/07 09:20:30;;;;;;;3.47;3.17;;;3.80;99.90;;;;;;4969131;28;20127;-75
2023/03/07 09:22:56;;;;;;;2.45;2.17;;;3.80;99.90;;;;;;4985386;28;20042;-75
2023/03/07 09:25:22;;;;;;;6.18;2.83;;;3.90;99.90;;;;;;4985253;28;20039;-75
2023/03/07 09:27:48;;;;;;;3.15;2.90;;;3.90;99.90;;;;;;4988337;28;20062;-75
2023/03/07 09:30:14;;;;;;;2.80;2.60;;;4.10;99.90;;;;;;4990391;28;20054;-75
2023/03/07 09:32:40;;;;;;;4.22;3.90;;;4.10;99.90;;;;;;4989985;28;20030;-75
2023/03/07 09:35:06;;;;;;;3.55;2.22;;;4.20;99.90;;;;;;4989039;28;20031;-75
2023/03/07 09:37:32;;;;;;;11.60;10.27;;;4.40;99.90;;;;;;4988517;28;20034;-75
2023/03/07 09:39:58;;;;;;;3.75;3.47;;;4.50;99.90;;;;;;4988734;28;20108;-75
2023/03/07 09:43:07;;;;;;;3.22;3.03;;;4.70;99.90;;;;;;4989689;28;20084;-75
2023/03/07 09:46:03;;;;;;;3.45;2.95;;;4.70;99.90;;;;;;4975478;28;20031;-75
2023/03/07 09:48:51;;;;;;;3.33;3.03;;;4.70;99.90;;;;;;4972090;28;20054;-74
2023/03/07 09:51:30;;;;;;;2.45;2.25;;;4.80;99.90;;;;;;4989813;28;20038;-75
2023/03/07 09:54:04;;;;;;;1.80;1.70;;;4.90;99.90;;;;;;4988706;28;20031;-75
2023/03/07 09:56:39;;;;;;;1.67;1.58;;;4.90;99.90;;;;;;4972357;28;20034;-75
2023/03/07 09:59:11;;;;;;;1.48;1.38;;;4.80;99.90;;;;;;4988160;28;20089;-75
2023/03/07 10:01:39;;;;;;;2.20;2.00;;;4.60;99.90;;;;;;4988192;28;20026;-75
2023/03/07 10:04:11;;;;;;;2.30;2.20;;;4.50;99.90;;;;;;4989673;28;20019;-75
2023/03/07 10:06:44;;;;;;;1.60;1.50;;;4.60;99.90;;;;;;4989513;28;20031;-74
2023/03/07 10:09:17;;;;;;;1.45;1.35;;;4.60;99.90;;;;;;4987483;28;20027;-75
2023/03/07 10:12:11;;;;;;;2.13;1.92;;;4.50;99.90;;;;;;4988069;28;20018;-75
2023/03/07 10:14:42;;;;;;;1.88;1.77;;;4.50;99.90;;;;;;4987443;28;20109;-75
2023/03/07 10:17:36;;;;;;;2.15;1.95;;;4.50;99.90;;;;;;4989541;28;20034;-74
2023/03/07 10:20:18;;;;;;;2.88;1.83;;;4.60;99.90;;;;;;4988266;28;20092;-75
2023/03/07 10:22:47;;;;;;;2.13;1.75;;;4.60;99.90;;;;;;4989181;28;20106;-75
2023/03/07 10:25:39;;;;;;;1.92;1.83;;;4.60;99.90;;;;;;4989402;28;20070;-75
2023/03/07 10:28:38;;;;;;;1.75;1.50;;;4.60;99.90;;;;;;4989435;28;20118;-75
2023/03/07 10:31:24;;;;;;;1.85;1.75;;;4.60;99.90;;;;;;4998182;28;20078;-75
2023/03/07 10:33:51;;;;;;;1.63;1.55;;;4.50;99.90;;;;;;4987888;28;20034;-75
2023/03/07 10:36:21;;;;;;;2.25;2.13;;;4.60;99.90;;;;;;4987832;28;20033;-75
2023/03/07 10:39:05;;;;;;;1.60;1.50;;;4.70;99.90;;;;;;4987763;28;20041;-75
2023/03/07 10:41:31;;;;;;;0.95;0.95;;;4.70;99.90;;;;;;4988846;28;20026;-75
2023/03/07 10:43:57;;;;;;;3.65;1.85;;;4.60;99.90;;;;;;4988905;28;20023;-75
2023/03/07 10:46:26;;;;;;;2.00;1.90;;;4.70;99.90;;;;;;4987819;28;20506;-75
2023/03/07 10:49:06;;;;;;;1.65;1.55;;;4.80;99.90;;;;;;4988558;28;20038;-75
2023/03/07 10:51:53;;;;;;;1.02;1.02;;;4.90;99.90;;;;;;4987421;28;20038;-75
2023/03/07 10:54:34;;;;;;;2.17;1.85;;;4.80;99.90;;;;;;4988697;28;20030;-75
2023/03/07 10:57:17;;;;;;;1.35;1.35;;;4.90;99.90;;;;;;4988493;28;20031;-75
2023/03/07 10:59:48;;;;;;;6.47;5.97;;;4.90;99.90;;;;;;4988260;28;20049;-75
2023/03/07 11:02:33;;;;;;;2.33;2.22;;;4.90;99.90;;;;;;4988426;28;20113;-75
2023/03/07 11:04:59;;;;;;;1.27;1.17;;;4.90;99.90;;;;;;4988433;28;20039;-75
2023/03/07 11:07:29;;;;;;;1.55;1.45;;;4.80;99.90;;;;;;4988567;28;20070;-75
2023/03/07 11:09:57;;;;;;;1.80;1.52;;;4.80;99.90;;;;;;4988179;28;20027;-75
2023/03/07 11:12:24;;;;;;;1.38;1.27;;;4.70;99.90;;;;;;4988174;28;20050;-75
2023/03/07 11:15:16;;;;;;;1.55;1.13;;;4.60;99.90;;;;;;4987120;28;20034;-75
2023/03/07 11:17:44;;;;;;;2.20;2.00;;;4.70;99.90;;;;;;4983444;28;20070;-75
2023/03/07 11:20:19;;;;;;;1.80;1.70;;;4.50;99.90;;;;;;5003313;28;20085;-75
2023/03/07 11:22:45;;;;;;;1.30;1.25;;;4.40;99.90;;;;;;4988084;28;20086;-75
2023/03/07 11:25:25;;;;;;;1.02;1.02;;;4.40;99.90;;;;;;4987910;28;20030;-75
2023/03/07 11:27:57;;;;;;;1.73;1.63;;;4.40;99.90;;;;;;4986299;28;20105;-75
2023/03/07 11:30:38;;;;;;;1.50;1.40;;;4.30;99.90;;;;;;4986523;28;20022;-75
2023/03/07 11:33:32;;;;;;;1.38;1.27;;;4.40;99.90;;;;;;4970463;28;20023;-75
2023/03/07 11:36:10;;;;;;;2.00;1.85;;;4.40;99.90;;;;;;4986640;28;20035;-75
2023/03/07 11:38:51;;;;;;;0.93;0.93;;;4.40;99.90;;;;;;4986547;28;20062;-75
2023/03/07 11:41:29;;;;;;;1.80;1.70;;;4.40;99.90;;;;;;4986986;28;20035;-75
2023/03/07 11:44:10;;;;;;;1.75;1.65;;;4.40;99.90;;;;;;4987627;28;20067;-75
2023/03/07 11:47:11;;;;;;;1.05;1.00;;;4.40;99.90;;;;;;4986586;28;20038;-75
2023/03/07 11:50:05;;;;;;;1.23;1.23;;;4.40;99.90;;;;;;4977504;28;20126;-75
2023/03/07 11:52:42;;;;;;;1.60;1.58;;;4.20;99.90;;;;;;4979657;28;20031;-75
2023/03/07 11:55:46;;;;;;;1.80;1.70;;;4.20;99.90;;;;;;4981271;28;20031;-74
2023/03/07 11:58:47;;;;;;;1.85;1.75;;;4.30;99.90;;;;;;4985384;28;20029;-75
2023/03/07 12:01:28;;;;;;;1.42;1.33;;;4.20;99.90;;;;;;4985775;28;20041;-75
2023/03/07 12:04:13;;;;;;;1.58;1.38;;;4.30;99.90;;;;;;4987284;28;20054;-75
2023/03/07 12:07:04;;;;;;;1.52;1.42;;;4.50;99.90;;;;;;4985978;28;20023;-74
2023/03/07 12:09:47;;;;;;;1.63;1.52;;;4.70;99.90;;;;;;4969993;28;20042;-75
2023/03/07 12:12:40;;;;;;;2.70;2.50;;;4.80;99.90;;;;;;4987219;28;20077;-75
2023/03/07 12:15:06;;;;;;;2.75;2.55;;;5.20;99.90;;;;;;4987212;28;20487;-75
2023/03/07 12:17:38;;;;;;;2.35;2.15;;;5.30;99.90;;;;;;4969889;28;20098;-75
2023/03/07 12:20:12;;;;;;;2.58;2.10;;;5.40;99.90;;;;;;4987166;28;20476;-75
2023/03/07 12:23:08;;;;;;;2.58;2.38;;;5.70;99.90;;;;;;4986137;28;20126;-75
2023/03/07 12:25:34;;;;;;;3.03;2.83;;;5.90;99.90;;;;;;4985903;28;20034;-75
2023/03/07 12:28:27;;;;;;;3.92;3.63;;;6.00;99.90;;;;;;4987233;28;20524;-75
2023/03/07 12:31:14;;;;;;;2.53;2.33;;;6.00;99.90;;;;;;4987276;28;20034;-75
2023/03/07 12:33:52;;;;;;;2.30;2.20;;;6.10;99.90;;;;;;4986662;28;20034;-75
2023/03/07 12:36:28;;;;;;;2.35;2.15;;;6.10;99.90;;;;;;4964665;28;20035;-75
2023/03/07 12:38:59;;;;;;;2.25;2.05;;;6.00;99.90;;;;;;4985905;28;20468;-76
2023/03/07 12:41:34;;;;;;;2.92;2.72;;;6.00;99.90;;;;;;4986991;28;20436;-76
2023/03/07 12:44:09;;;;;;;2.95;2.75;;;6.10;99.90;;;;;;4985464;28;20034;-76
2023/03/07 12:46:53;;;;;;;1.60;1.50;;;6.10;99.90;;;;;;4969726;28;20022;-76
2023/03/07 12:49:46;;;;;;;2.42;2.30;;;6.20;99.90;;;;;;4986947;28;20031;-76
2023/03/07 12:52:29;;;;;;;2.08;1.98;;;6.30;99.90;;;;;;4985817;28;20034;-75
2023/03/07 12:55:19;;;;;;;2.63;2.40;;;6.30;99.90;;;;;;4986738;28;20054;-76
2023/03/07 12:58:12;;;;;;;2.40;2.20;;;6.10;99.90;;;;;;4986743;28;20030;-75
2023/03/07 13:00:48;;;;;;;2.65;2.47;;;6.10;99.90;;;;;;4969262;28;20058;-75
2023/03/07 13:03:36;;;;;;;2.20;2.03;;;6.00;99.90;;;;;;4990612;28;20030;-75
2023/03/07 13:06:02;;;;;;;2.42;2.22;;;6.00;99.90;;;;;;4990396;28;20045;-75
2023/03/07 13:08:29;;;;;;;3.10;2.58;;;5.80;99.90;;;;;;4989340;28;20022;-74